St Solene — FVDG — position and weather

sailwx.info

Track history (hours):
 
Tides and Currents Weather Stations Pressure Air Temp Water Temp Dewpoint Dewpoint Depression Visibility Wind Speed Wind Dir Waves Ship Positions

St Solene

Last reported at 2015-May-25 23:33 UTC. Time now 2015-May-25 23:42 UTC.
Position N 43°26' E 004°54'.

Length 104 m; draft 5.1 m.

Type: Tanker. MMSI: 226302000.

Date/timePositionNaut miles runAvg speedWind from/ knotsBaromVisibWave heightAir tempDewpointWater temp
2015-May-25 23:33N 43°26' E 004°54'0 0.0
2015-May-25 22:33N 43°26' E 004°54'0 0.0
2015-May-25 21:33N 43°26' E 004°54'0 0.0
2015-May-25 20:34N 43°26' E 004°54'0 0.0
2015-May-25 19:33N 43°26' E 004°54'0 0.0
2015-May-25 18:33N 43°26' E 004°54'0 0.0
2015-May-25 17:33N 43°26' E 004°54'0 0.0
2015-May-25 16:33N 43°26' E 004°54'0 0.0
2015-May-25 15:33N 43°26' E 004°54'0 0.0
2015-May-25 14:33N 43°26' E 004°54'0 0.0
2015-May-25 13:33N 43°26' E 004°54'0 0.0
2015-May-25 12:34N 43°26' E 004°54'0 0.0
2015-May-25 11:33N 43°26' E 004°54'0 0.0
2015-May-25 10:33N 43°26' E 004°54'0 0.0
2015-May-25 09:33N 43°26' E 004°54'0 0.0
2015-May-25 08:33N 43°26' E 004°54'0 0.3
2015-May-25 07:33N 43°25' E 004°53'2 2.4
2015-May-25 06:31N 43°24' E 004°57'0 0.0
2015-May-25 05:31N 43°25' E 004°57'0 0.0
2015-May-25 04:31N 43°25' E 004°57'0 0.0
2015-May-25 03:31N 43°25' E 004°57'0 0.0
2015-May-25 02:25N 43°25' E 004°57'0 0.0
2015-May-25 01:31N 43°25' E 004°57'0 0.0
2015-May-25 00:31N 43°25' E 004°57'0 0.0
2015-May-24 23:19N 43°25' E 004°57'0 0.0
2015-May-24 22:25N 43°25' E 004°57'0 0.0
2015-May-24 21:31N 43°25' E 004°56'0 0.0
2015-May-24 20:28N 43°25' E 004°56'0 0.0
2015-May-24 19:19N 43°25' E 004°56'0 0.0
2015-May-24 18:31N 43°25' E 004°56'0 0.0
2015-May-24 17:13N 43°25' E 004°57'0 0.0
2015-May-24 16:25N 43°25' E 004°57'0 0.0
2015-May-24 15:31N 43°25' E 004°57'0 0.0
2015-May-24 14:31N 43°25' E 004°57'0 0.0
2015-May-24 13:31N 43°25' E 004°57'0 0.0
2015-May-24 12:31N 43°25' E 004°56'0 0.0
2015-May-24 11:25N 43°25' E 004°56'0 0.0
2015-May-24 10:22N 43°25' E 004°57'0 0.1
2015-May-24 09:28N 43°25' E 004°57'0 0.0
2015-May-24 08:25N 43°25' E 004°57'0 0.0
2015-May-24 07:25N 43°25' E 004°57'4 4.5
2015-May-24 06:33N 43°21' E 004°58'38 1.3
2015-May-23 00:34N 43°05' E 004°11'37 9.3
2015-May-22 20:33N 43°19' E 004°58'5 4.5
2015-May-22 19:33N 43°24' E 004°60'0 0.0
2015-May-22 18:23N 43°24' E 004°60'0 0.0
2015-May-22 17:23N 43°24' E 004°60'0 0.0
2015-May-22 16:23N 43°24' E 004°60'0 0.0
2015-May-22 15:29N 43°24' E 004°60'0 0.0
2015-May-22 14:29N 43°24' E 004°60'0 0.0
2015-May-22 13:29N 43°24' E 004°60'0 0.0
2015-May-22 12:29N 43°24' E 004°60'0 0.0
2015-May-22 11:32N 43°24' E 004°60'0 0.0
2015-May-22 10:29N 43°24' E 004°60'0 0.0
2015-May-22 09:29N 43°24' E 004°60'0 0.0
2015-May-22 08:23N 43°24' E 004°60'0 0.0
2015-May-22 07:23N 43°24' E 004°60'0 0.0
2015-May-22 06:20N 43°24' E 004°60'0 0.0
2015-May-22 05:29N 43°24' E 004°60'0 0.0
2015-May-22 04:29N 43°24' E 004°60'0 0.0
2015-May-22 03:23N 43°24' E 004°60'0 0.0
2015-May-22 02:23N 43°24' E 004°60'0 0.0
2015-May-22 01:32N 43°24' E 004°60'0 0.0
2015-May-22 00:29N 43°24' E 004°60'0 0.0
2015-May-21 23:29N 43°24' E 004°60'0 0.0
2015-May-21 22:29N 43°24' E 004°60'0 0.0
2015-May-21 21:29N 43°24' E 004°60'0 0.0
2015-May-21 20:17N 43°24' E 004°60'0 0.0
2015-May-21 19:32N 43°24' E 004°60'3 2.5
2015-May-21 18:29N 43°25' E 004°56'0 0.1
2015-May-21 17:23N 43°25' E 004°56'0 0.0
2015-May-21 16:29N 43°25' E 004°56'0 0.0
2015-May-21 15:29N 43°25' E 004°56'0 0.0
2015-May-21 14:26N 43°25' E 004°56'0 0.0
2015-May-21 13:23N 43°25' E 004°56'0 0.0
2015-May-21 12:32N 43°25' E 004°56'0 0.0
2015-May-21 11:29N 43°25' E 004°56'0 0.0
2015-May-21 10:33N 43°25' E 004°56'3 2.7
2015-May-21 09:34N 43°22' E 004°58'17 7.5
2015-May-21 07:16N 43°09' E 005°14'25 8.0
2015-May-21 04:08N 43°02' E 005°46'5 7.8
2015-May-21 03:32N 43°00' E 005°52'82 8.1
2015-May-20 17:26N 43°06' E 007°44'7 8.0
2015-May-20 16:33N 43°03' E 007°53'6 5.9
2015-May-20 15:33N 43°02' E 008°01'47 6.4
2015-May-20 08:15N 43°06' E 009°05'5 6.1
2015-May-20 07:24N 43°06' E 009°12'7 7.9
2015-May-20 06:33N 43°07' E 009°21'9 8.3
2015-May-20 05:26N 43°02' E 009°32'21 0.7
2015-May-19 00:32N 42°42' E 009°42'1111.6
2015-May-18 23:33N 42°54' E 009°40'1111.1
2015-May-18 22:33N 43°04' E 009°37'8 7.8
2015-May-18 21:33N 43°09' E 009°29'1111.1
2015-May-18 20:34N 43°08' E 009°14'1111.2
2015-May-18 19:33N 43°06' E 008°58'9 9.1
2015-May-18 18:33N 43°05' E 008°46'8 6.8
2015-May-18 17:27N 43°04' E 008°36'6 6.5
2015-May-18 16:33N 43°03' E 008°28'7 6.4
2015-May-18 15:25N 43°02' E 008°18'6 6.5
2015-May-18 14:34N 43°01' E 008°10'9 8.5
2015-May-18 13:33N 43°00' E 007°59'7 6.5
2015-May-18 12:32N 42°59' E 007°50'127 9.1
2015-May-17 22:33N 43°21' E 004°58'3 3.2
2015-May-17 21:33N 43°24' E 004°60'0 0.0
2015-May-17 20:30N 43°24' E 004°60'0 0.0
2015-May-17 19:15N 43°24' E 004°60'0 0.0
2015-May-17 18:30N 43°24' E 004°60'0 0.0
2015-May-17 17:33N 43°24' E 004°60'0 0.0
2015-May-17 16:15N 43°24' E 004°60'0 0.0
2015-May-17 15:33N 43°24' E 004°60'0 0.0
2015-May-17 14:33N 43°24' E 004°60'0 0.0
2015-May-17 13:33N 43°24' E 004°60'0 0.0
2015-May-17 12:33N 43°24' E 004°60'0 0.0
2015-May-17 11:33N 43°24' E 004°60'0 0.0
2015-May-17 10:33N 43°24' E 004°60'0 0.0
2015-May-17 09:21N 43°24' E 004°60'0 0.0
2015-May-17 08:27N 43°24' E 004°60'0 0.0
2015-May-17 07:33N 43°24' E 004°60'0 0.0
2015-May-17 06:33N 43°24' E 004°60'0 0.0
2015-May-17 05:33N 43°24' E 004°60'0 0.0
2015-May-17 04:33N 43°24' E 004°60'0 0.0
2015-May-17 03:33N 43°24' E 004°60'0 0.0
2015-May-17 02:27N 43°24' E 004°60'0 0.0
2015-May-17 01:33N 43°24' E 004°60'0 0.0
2015-May-17 00:27N 43°24' E 004°60'0 0.0
2015-May-16 23:33N 43°24' E 004°60'0 0.0
2015-May-16 21:33N 43°24' E 004°60'0 0.0
2015-May-16 20:27N 43°24' E 004°60'0 0.0
2015-May-16 19:33N 43°24' E 004°60'0 0.0
2015-May-16 18:33N 43°24' E 004°60'0 0.0
2015-May-16 17:33N 43°24' E 004°60'0 0.0
2015-May-16 16:27N 43°24' E 004°60'0 0.0
2015-May-16 15:24N 43°24' E 004°60'0 0.0
2015-May-16 14:33N 43°24' E 004°60'0 0.0
2015-May-16 13:15N 43°24' E 004°60'0 0.0
2015-May-16 12:33N 43°24' E 004°60'0 0.0
2015-May-16 11:30N 43°24' E 004°60'0 0.0
2015-May-16 10:33N 43°24' E 004°60'0 0.0
2015-May-16 09:27N 43°24' E 004°60'0 0.0
2015-May-16 08:27N 43°24' E 004°60'0 0.0
2015-May-16 07:33N 43°24' E 004°60'1 0.8
2015-May-16 06:33N 43°23' E 004°59'2 1.8
2015-May-16 05:25N 43°25' E 004°57'0 0.0
2015-May-16 04:31N 43°25' E 004°57'0 0.0
2015-May-16 03:31N 43°25' E 004°57'0 0.0
2015-May-16 02:31N 43°25' E 004°57'0 0.0
2015-May-16 01:31N 43°25' E 004°57'0 0.0
2015-May-16 00:31N 43°25' E 004°57'  
Track history (hours):
 
Tides and Currents Weather Stations Pressure Air Temp Water Temp Dewpoint Dewpoint Depression Visibility Wind Speed Wind Dir Waves Ship Positions

St Solene

Last reported at 2015-May-25 23:33 UTC. Time now 2015-May-25 23:42 UTC.
Position N 43°26' E 004°54'.

Length 104 m; draft 5.1 m.

Type: Tanker. MMSI: 226302000.

Date/timePositionNaut miles runAvg speedWind from/ knotsBaromVisibWave heightAir tempDewpointWater temp
2015-May-25 23:33N 43°26' E 004°54'0 0.0
2015-May-25 22:33N 43°26' E 004°54'0 0.0
2015-May-25 21:33N 43°26' E 004°54'0 0.0
2015-May-25 20:34N 43°26' E 004°54'0 0.0
2015-May-25 19:33N 43°26' E 004°54'0 0.0
2015-May-25 18:33N 43°26' E 004°54'0 0.0
2015-May-25 17:33N 43°26' E 004°54'0 0.0
2015-May-25 16:33N 43°26' E 004°54'0 0.0
2015-May-25 15:33N 43°26' E 004°54'0 0.0
2015-May-25 14:33N 43°26' E 004°54'0 0.0
2015-May-25 13:33N 43°26' E 004°54'0 0.0
2015-May-25 12:34N 43°26' E 004°54'0 0.0
2015-May-25 11:33N 43°26' E 004°54'0 0.0
2015-May-25 10:33N 43°26' E 004°54'0 0.0
2015-May-25 09:33N 43°26' E 004°54'0 0.0
2015-May-25 08:33N 43°26' E 004°54'0 0.3
2015-May-25 07:33N 43°25' E 004°53'2 2.4
2015-May-25 06:31N 43°24' E 004°57'0 0.0
2015-May-25 05:31N 43°25' E 004°57'0 0.0
2015-May-25 04:31N 43°25' E 004°57'0 0.0
2015-May-25 03:31N 43°25' E 004°57'0 0.0
2015-May-25 02:25N 43°25' E 004°57'0 0.0
2015-May-25 01:31N 43°25' E 004°57'0 0.0
2015-May-25 00:31N 43°25' E 004°57'0 0.0
2015-May-24 23:19N 43°25' E 004°57'0 0.0
2015-May-24 22:25N 43°25' E 004°57'0 0.0
2015-May-24 21:31N 43°25' E 004°56'0 0.0
2015-May-24 20:28N 43°25' E 004°56'0 0.0
2015-May-24 19:19N 43°25' E 004°56'0 0.0
2015-May-24 18:31N 43°25' E 004°56'0 0.0
2015-May-24 17:13N 43°25' E 004°57'0 0.0
2015-May-24 16:25N 43°25' E 004°57'0 0.0
2015-May-24 15:31N 43°25' E 004°57'0 0.0
2015-May-24 14:31N 43°25' E 004°57'0 0.0
2015-May-24 13:31N 43°25' E 004°57'0 0.0
2015-May-24 12:31N 43°25' E 004°56'0 0.0
2015-May-24 11:25N 43°25' E 004°56'0 0.0
2015-May-24 10:22N 43°25' E 004°57'0 0.1
2015-May-24 09:28N 43°25' E 004°57'0 0.0
2015-May-24 08:25N 43°25' E 004°57'0 0.0
2015-May-24 07:25N 43°25' E 004°57'4 4.5
2015-May-24 06:33N 43°21' E 004°58'38 1.3
2015-May-23 00:34N 43°05' E 004°11'37 9.3
2015-May-22 20:33N 43°19' E 004°58'5 4.5
2015-May-22 19:33N 43°24' E 004°60'0 0.0
2015-May-22 18:23N 43°24' E 004°60'0 0.0
2015-May-22 17:23N 43°24' E 004°60'0 0.0
2015-May-22 16:23N 43°24' E 004°60'0 0.0
2015-May-22 15:29N 43°24' E 004°60'0 0.0
2015-May-22 14:29N 43°24' E 004°60'0 0.0
2015-May-22 13:29N 43°24' E 004°60'0 0.0
2015-May-22 12:29N 43°24' E 004°60'0 0.0
2015-May-22 11:32N 43°24' E 004°60'0 0.0
2015-May-22 10:29N 43°24' E 004°60'0 0.0
2015-May-22 09:29N 43°24' E 004°60'0 0.0
2015-May-22 08:23N 43°24' E 004°60'0 0.0
2015-May-22 07:23N 43°24' E 004°60'0 0.0
2015-May-22 06:20N 43°24' E 004°60'0 0.0
2015-May-22 05:29N 43°24' E 004°60'0 0.0
2015-May-22 04:29N 43°24' E 004°60'0 0.0
2015-May-22 03:23N 43°24' E 004°60'0 0.0
2015-May-22 02:23N 43°24' E 004°60'0 0.0
2015-May-22 01:32N 43°24' E 004°60'0 0.0
2015-May-22 00:29N 43°24' E 004°60'0 0.0
2015-May-21 23:29N 43°24' E 004°60'0 0.0
2015-May-21 22:29N 43°24' E 004°60'0 0.0
2015-May-21 21:29N 43°24' E 004°60'0 0.0
2015-May-21 20:17N 43°24' E 004°60'0 0.0
2015-May-21 19:32N 43°24' E 004°60'3 2.5
2015-May-21 18:29N 43°25' E 004°56'0 0.1
2015-May-21 17:23N 43°25' E 004°56'0 0.0
2015-May-21 16:29N 43°25' E 004°56'0 0.0
2015-May-21 15:29N 43°25' E 004°56'0 0.0
2015-May-21 14:26N 43°25' E 004°56'0 0.0
2015-May-21 13:23N 43°25' E 004°56'0 0.0
2015-May-21 12:32N 43°25' E 004°56'0 0.0
2015-May-21 11:29N 43°25' E 004°56'0 0.0
2015-May-21 10:33N 43°25' E 004°56'3 2.7
2015-May-21 09:34N 43°22' E 004°58'17 7.5
2015-May-21 07:16N 43°09' E 005°14'25 8.0
2015-May-21 04:08N 43°02' E 005°46'5 7.8
2015-May-21 03:32N 43°00' E 005°52'82 8.1
2015-May-20 17:26N 43°06' E 007°44'7 8.0
2015-May-20 16:33N 43°03' E 007°53'6 5.9
2015-May-20 15:33N 43°02' E 008°01'47 6.4
2015-May-20 08:15N 43°06' E 009°05'5 6.1
2015-May-20 07:24N 43°06' E 009°12'7 7.9
2015-May-20 06:33N 43°07' E 009°21'9 8.3
2015-May-20 05:26N 43°02' E 009°32'21 0.7
2015-May-19 00:32N 42°42' E 009°42'1111.6
2015-May-18 23:33N 42°54' E 009°40'1111.1
2015-May-18 22:33N 43°04' E 009°37'8 7.8
2015-May-18 21:33N 43°09' E 009°29'1111.1
2015-May-18 20:34N 43°08' E 009°14'1111.2
2015-May-18 19:33N 43°06' E 008°58'9 9.1
2015-May-18 18:33N 43°05' E 008°46'8 6.8
2015-May-18 17:27N 43°04' E 008°36'6 6.5
2015-May-18 16:33N 43°03' E 008°28'7 6.4
2015-May-18 15:25N 43°02' E 008°18'6 6.5
2015-May-18 14:34N 43°01' E 008°10'9 8.5
2015-May-18 13:33N 43°00' E 007°59'7 6.5
2015-May-18 12:32N 42°59' E 007°50'127 9.1
2015-May-17 22:33N 43°21' E 004°58'3 3.2
2015-May-17 21:33N 43°24' E 004°60'0 0.0
2015-May-17 20:30N 43°24' E 004°60'0 0.0
2015-May-17 19:15N 43°24' E 004°60'0 0.0
2015-May-17 18:30N 43°24' E 004°60'0 0.0
2015-May-17 17:33N 43°24' E 004°60'0 0.0
2015-May-17 16:15N 43°24' E 004°60'0 0.0
2015-May-17 15:33N 43°24' E 004°60'0 0.0
2015-May-17 14:33N 43°24' E 004°60'0 0.0
2015-May-17 13:33N 43°24' E 004°60'0 0.0
2015-May-17 12:33N 43°24' E 004°60'0 0.0
2015-May-17 11:33N 43°24' E 004°60'0 0.0
2015-May-17 10:33N 43°24' E 004°60'0 0.0
2015-May-17 09:21N 43°24' E 004°60'0 0.0
2015-May-17 08:27N 43°24' E 004°60'0 0.0
2015-May-17 07:33N 43°24' E 004°60'0 0.0
2015-May-17 06:33N 43°24' E 004°60'0 0.0
2015-May-17 05:33N 43°24' E 004°60'0 0.0
2015-May-17 04:33N 43°24' E 004°60'0 0.0
2015-May-17 03:33N 43°24' E 004°60'0 0.0
2015-May-17 02:27N 43°24' E 004°60'0 0.0
2015-May-17 01:33N 43°24' E 004°60'0 0.0
2015-May-17 00:27N 43°24' E 004°60'0 0.0
2015-May-16 23:33N 43°24' E 004°60'0 0.0
2015-May-16 21:33N 43°24' E 004°60'0 0.0
2015-May-16 20:27N 43°24' E 004°60'0 0.0
2015-May-16 19:33N 43°24' E 004°60'0 0.0
2015-May-16 18:33N 43°24' E 004°60'0 0.0
2015-May-16 17:33N 43°24' E 004°60'0 0.0
2015-May-16 16:27N 43°24' E 004°60'0 0.0
2015-May-16 15:24N 43°24' E 004°60'0 0.0
2015-May-16 14:33N 43°24' E 004°60'0 0.0
2015-May-16 13:15N 43°24' E 004°60'0 0.0
2015-May-16 12:33N 43°24' E 004°60'0 0.0
2015-May-16 11:30N 43°24' E 004°60'0 0.0
2015-May-16 10:33N 43°24' E 004°60'0 0.0
2015-May-16 09:27N 43°24' E 004°60'0 0.0
2015-May-16 08:27N 43°24' E 004°60'0 0.0
2015-May-16 07:33N 43°24' E 004°60'1 0.8
2015-May-16 06:33N 43°23' E 004°59'2 1.8
2015-May-16 05:25N 43°25' E 004°57'0 0.0
2015-May-16 04:31N 43°25' E 004°57'0 0.0
2015-May-16 03:31N 43°25' E 004°57'0 0.0
2015-May-16 02:31N 43°25' E 004°57'0 0.0
2015-May-16 01:31N 43°25' E 004°57'0 0.0
2015-May-16 00:31N 43°25' E 004°57'  

Dump ship's entire track history